Time;durP1;ratioP1;P1;durP2;ratioP2;P2;SDS_P1;SDS_P2;PMS_P1;PMS_P2;Temp;Humidity;BMP_temperature;BMP_pressure;BME280_temperature;BME280_humidity;BME280_pressure;Samples;Min_cycle;Max_cycle;Signal;HPM_P1;HPM_P2
2022/09/02 00:00:51;;;;;;;2.33;2.13;;;;;;;17.29;55.84;98897.09;4905913;29;20058;-67
2022/09/02 00:03:19;;;;;;;2.08;1.98;;;;;;;17.27;55.64;98886.66;4905014;29;20045;-66
2022/09/02 00:05:46;;;;;;;2.05;1.95;;;;;;;17.26;55.83;98887.69;4904214;29;20024;-67
2022/09/02 00:08:13;;;;;;;2.97;2.33;;;;;;;17.25;55.97;98888.75;4916317;29;20072;-66
2022/09/02 00:10:42;;;;;;;2.17;2.03;;;;;;;17.23;55.79;98895.38;4916207;29;20063;-66
2022/09/02 00:13:13;;;;;;;2.67;2.47;;;;;;;17.21;56.06;98889.44;4915710;29;20048;-66
2022/09/02 00:15:41;;;;;;;2.42;2.30;;;;;;;17.20;55.85;98896.66;4912714;29;20048;-66
2022/09/02 00:18:11;;;;;;;2.38;2.28;;;;;;;17.16;55.84;98890.16;4907159;29;20114;-66
2022/09/02 00:20:47;;;;;;;2.45;2.25;;;;;;;17.14;56.40;98886.88;4904241;29;20044;-67
2022/09/02 00:23:15;;;;;;;2.60;2.40;;;;;;;17.12;56.04;98888.97;4906350;29;20044;-66
2022/09/02 00:25:43;;;;;;;2.80;2.60;;;;;;;17.09;56.29;98879.56;4901613;29;20404;-67
2022/09/02 00:28:12;;;;;;;2.60;2.40;;;;;;;17.06;56.25;98884.56;4901031;29;20076;-67
2022/09/02 00:30:40;;;;;;;2.05;1.85;;;;;;;17.04;56.69;98884.81;4900382;29;20048;-67
2022/09/02 00:33:07;;;;;;;1.67;1.58;;;;;;;17.04;56.71;98884.81;4892325;29;20511;-66
2022/09/02 00:35:35;;;;;;;2.13;1.98;;;;;;;17.05;56.72;98880.28;4891428;29;20079;-66
2022/09/02 00:38:02;;;;;;;2.88;2.20;;;;;;;17.05;56.88;98882.94;4898712;29;20105;-66
2022/09/02 00:40:29;;;;;;;2.20;2.00;;;;;;;17.04;56.59;98884.00;4902431;29;20053;-66
2022/09/02 00:42:56;;;;;;;3.22;2.92;;;;;;;17.02;56.42;98875.38;4892081;29;20044;-66
2022/09/02 00:45:24;;;;;;;2.67;2.47;;;;;;;16.99;56.45;98875.88;4889270;29;20073;-66
2022/09/02 00:47:50;;;;;;;2.17;2.08;;;;;;;16.96;57.08;98882.47;4889028;29;20059;-67
2022/09/02 00:50:23;;;;;;;2.70;2.50;;;;;;;16.94;57.03;98873.06;4904620;29;20079;-65
2022/09/02 00:52:55;;;;;;;2.88;2.55;;;;;;;16.91;56.57;98877.03;4904626;29;20048;-67
2022/09/02 00:55:26;;;;;;;2.53;2.33;;;;;;;16.86;56.77;98876.06;4904413;29;20144;-67
2022/09/02 00:57:59;;;;;;;2.20;2.00;;;;;;;16.81;57.54;98871.44;4903298;29;20058;-68
2022/09/02 01:00:32;;;;;;;2.53;2.33;;;;;;;16.80;57.04;98875.97;4911068;29;20124;-66
2022/09/02 01:03:04;;;;;;;2.25;2.05;;;;;;;16.79;57.26;98869.00;4897830;29;20045;-66
2022/09/02 01:05:35;;;;;;;2.03;1.83;;;;;;;16.78;57.27;98871.91;4906719;29;20135;-66
2022/09/02 01:08:06;;;;;;;2.28;2.08;;;;;;;16.77;57.32;98873.75;4898770;29;20105;-67
2022/09/02 01:10:34;;;;;;;2.80;2.60;;;;;;;16.75;57.11;98880.38;4866899;29;20088;-67
2022/09/02 01:13:07;;;;;;;2.65;2.45;;;;;;;16.70;57.48;98877.56;4882225;29;20061;-68
2022/09/02 01:15:42;;;;;;;2.97;2.77;;;;;;;16.63;57.64;98883.00;4868101;29;20045;-67
2022/09/02 01:18:13;;;;;;;2.40;2.20;;;;;;;16.58;57.49;98877.53;4865387;29;20318;-66
2022/09/02 01:20:41;;;;;;;2.42;2.22;;;;;;;16.55;57.59;98878.00;4875261;29;20152;-67
2022/09/02 01:23:08;;;;;;;2.80;2.60;;;;;;;16.50;57.66;98872.53;4908634;29;20081;-68
2022/09/02 01:25:36;;;;;;;2.60;2.40;;;;;;;16.46;57.60;98882.03;4871885;29;20038;-67
2022/09/02 01:28:07;;;;;;;2.58;2.38;;;;;;;16.43;57.83;98882.50;4885653;29;20512;-67
2022/09/02 01:30:36;;;;;;;2.13;1.92;;;;;;;16.41;58.50;98885.41;4870142;29;20049;-69
2022/09/02 01:33:03;;;;;;;2.20;2.05;;;;;;;16.42;58.04;98891.53;4891914;29;20053;-67
2022/09/02 01:35:30;;;;;;;2.28;2.10;;;;;;;16.40;57.87;98886.41;4899931;29;20119;-66
2022/09/02 01:37:58;;;;;;;1.88;1.77;;;;;;;16.38;58.21;98885.84;4919350;29;20546;-67
2022/09/02 01:40:26;;;;;;;1.90;1.80;;;;;;;16.35;58.13;98886.28;4884344;29;20057;-67
2022/09/02 01:43:14;;;;;;;2.15;2.05;;;;;;;16.34;58.23;98882.00;4884481;29;20139;-67
2022/09/02 01:45:46;;;;;;;2.50;2.30;;;;;;;16.29;58.31;98877.38;4884931;29;20501;-67
2022/09/02 01:48:15;;;;;;;2.58;2.25;;;;;;;16.21;58.49;98875.03;4899302;29;20056;-67
2022/09/02 01:50:55;;;;;;;;;;;;;;;16.13;58.16;98875.34;4886270;29;20060;-67
2022/09/02 01:53:22;;;;;;;2.70;2.50;;;;;;;16.07;58.45;98877.03;4920831;29;19923;-67
2022/09/02 01:55:51;;;;;;;2.33;2.13;;;;;;;16.03;59.18;98875.06;4887221;29;20409;-66
2022/09/02 01:58:18;;;;;;;1.90;1.80;;;;;;;16.02;58.94;98871.56;4902560;29;20100;-67
2022/09/02 02:00:45;;;;;;;1.70;1.60;;;;;;;16.03;59.06;98875.88;4900938;29;20052;-66
2022/09/02 02:03:12;;;;;;;1.80;1.70;;;;;;;16.04;59.08;98874.00;4893519;29;20047;-67
2022/09/02 02:05:40;;;;;;;1.90;1.80;;;;;;;16.05;59.21;98876.47;4885877;29;20048;-67
2022/09/02 02:08:07;;;;;;;1.70;1.60;;;;;;;16.07;59.28;98873.56;4900136;29;20044;-67
2022/09/02 02:10:33;;;;;;;2.30;2.20;;;;;;;16.06;58.81;98875.41;4898106;29;20075;-66
2022/09/02 02:13:00;;;;;;;2.30;2.20;;;;;;;16.03;58.92;98872.38;4884499;29;20056;-67
2022/09/02 02:15:30;;;;;;;2.30;2.10;;;;;;;15.99;59.26;98874.69;4884608;29;20053;-67
2022/09/02 02:17:56;;;;;;;2.00;1.90;;;;;;;15.99;59.60;98869.34;4900221;29;20061;-67
2022/09/02 02:20:25;;;;;;;2.05;1.85;;;;;;;16.00;59.74;98865.66;4901977;29;20049;-66
2022/09/02 02:22:52;;;;;;;1.70;1.60;;;;;;;16.01;59.38;98869.97;4901801;29;20163;-67
2022/09/02 02:25:19;;;;;;;1.50;1.40;;;;;;;16.02;59.53;98871.56;4901973;29;20144;-67
2022/09/02 02:27:50;;;;;;;2.58;2.38;;;;;;;16.02;59.22;98865.44;4901460;29;20084;-68
2022/09/02 02:30:20;;;;;;;2.90;2.70;;;;;;;15.98;58.96;98869.59;4901551;29;20121;-67
2022/09/02 02:32:47;;;;;;;2.67;2.47;;;;;;;15.95;59.75;98862.84;4896892;29;20120;-67
2022/09/02 02:35:18;;;;;;;3.20;2.90;;;;;;;15.92;59.22;98862.47;4882783;29;20055;-67
2022/09/02 02:37:48;;;;;;;2.45;2.25;;;;;;;15.89;59.99;98863.75;4896793;29;20053;-67
2022/09/02 02:40:19;;;;;;;2.60;2.40;;;;;;;15.88;59.76;98866.63;4895999;29;20044;-67
2022/09/02 02:42:47;;;;;;;2.25;2.15;;;;;;;15.84;59.43;98867.09;4896280;29;20453;-68
2022/09/02 02:45:14;;;;;;;3.58;2.75;;;;;;;15.80;59.91;98865.94;4896177;29;20067;-69
2022/09/02 02:47:42;;;;;;;2.85;2.60;;;;;;;15.72;59.35;98868.91;4895823;29;20398;-68
2022/09/02 02:50:11;;;;;;;2.90;2.70;;;;;;;15.62;59.66;98868.56;4898784;29;20462;-68
2022/09/02 02:52:39;;;;;;;2.42;2.25;;;;;;;15.50;60.17;98863.16;4900081;29;20148;-68
2022/09/02 02:55:09;;;;;;;2.28;2.08;;;;;;;15.44;60.54;98864.06;4884935;29;20439;-67
2022/09/02 02:57:37;;;;;;;2.60;2.40;;;;;;;15.38;60.50;98861.47;4884549;29;20052;-67
2022/09/02 03:00:27;;;;;;;2.60;2.40;;;;;;;15.35;60.76;98860.91;4900096;29;20053;-67
2022/09/02 03:03:00;;;;;;;2.40;2.28;;;;;;;15.33;60.93;98862.97;4893892;29;20635;-66
2022/09/02 03:05:29;;;;;;;2.13;1.93;;;;;;;15.32;60.97;98852.53;4899981;29;20083;-67
2022/09/02 03:07:57;;;;;;;2.58;2.38;;;;;;;15.31;60.75;98856.25;4915329;29;20291;-67
2022/09/02 03:10:25;;;;;;;2.22;2.05;;;;;;;15.27;60.54;98855.88;4901048;29;20127;-67
2022/09/02 03:12:53;;;;;;;2.03;1.92;;;;;;;15.22;60.92;98853.03;4884254;29;20049;-67
2022/09/02 03:15:20;;;;;;;2.70;1.90;;;;;;;15.17;61.07;98852.06;4899397;29;20068;-66
2022/09/02 03:17:52;;;;;;;1.90;1.80;;;;;;;15.13;61.32;98854.38;4898867;29;20466;-66
2022/09/02 03:20:20;;;;;;;1.70;1.60;;;;;;;15.13;61.32;98858.88;4882790;29;20055;-68
2022/09/02 03:22:55;;;;;;;1.65;1.55;;;;;;;15.16;61.46;98858.44;4898319;29;20104;-66
2022/09/02 03:25:22;;;;;;;1.50;1.40;;;;;;;15.15;61.60;98854.97;4898130;29;20071;-66
2022/09/02 03:27:54;;;;;;;2.00;1.90;;;;;;;15.15;61.19;98852.31;4882830;29;20044;-66
2022/09/02 03:30:24;;;;;;;2.30;2.10;;;;;;;15.15;61.26;98851.50;4897850;29;20041;-66
2022/09/02 03:32:52;;;;;;;2.63;2.42;;;;;;;15.08;61.39;98865.69;4891607;29;20044;-66
2022/09/02 03:35:21;;;;;;;2.30;2.10;;;;;;;15.01;61.63;98864.09;4889886;29;20040;-67
2022/09/02 03:37:49;;;;;;;2.33;2.15;;;;;;;14.97;61.58;98860.25;4881927;29;20057;-66
2022/09/02 03:40:20;;;;;;;2.22;2.10;;;;;;;14.94;62.26;98861.53;4882285;29;20067;-67
2022/09/02 03:42:47;;;;;;;3.13;2.33;;;;;;;14.93;61.95;98865.19;4897948;29;20401;-66
2022/09/02 03:45:14;;;;;;;2.50;2.30;;;;;;;14.90;62.07;98863.00;4897707;29;20079;-67
2022/09/02 03:47:49;;;;;;;1.90;1.80;;;;;;;14.86;62.25;98867.94;4897563;29;20105;-67
2022/09/02 03:50:26;;;;;;;2.00;1.90;;;;;;;14.86;62.34;98862.63;4897321;29;20045;-67
2022/09/02 03:52:53;;;;;;;2.58;2.38;;;;;;;14.86;62.03;98854.63;4897496;29;20405;-67
2022/09/02 03:55:21;;;;;;;2.65;2.45;;;;;;;14.81;62.12;98853.63;4897516;29;20067;-68
2022/09/02 03:57:48;;;;;;;2.50;2.30;;;;;;;14.75;62.14;98851.88;4897119;29;20044;-67
2022/09/02 04:03:19;;;;;;;2.83;2.63;;;;;;;14.61;62.46;98859.13;4968344;23;1118622;-69
2022/09/02 04:05:47;;;;;;;2.97;2.78;;;;;;;14.60;62.66;98858.31;4899839;29;20056;-69
2022/09/02 04:08:15;;;;;;;3.00;2.67;;;;;;;14.59;62.66;98855.88;4886618;29;20048;-69
2022/09/02 04:10:42;;;;;;;2.35;2.15;;;;;;;14.59;62.71;98853.22;4885506;29;20057;-69
2022/09/02 04:13:08;;;;;;;2.35;2.15;;;;;;;14.60;63.11;98850.34;4885569;29;20174;-70
2022/09/02 04:15:41;;;;;;;2.03;1.92;;;;;;;14.63;62.76;98859.75;4900855;29;20073;-70
2022/09/02 04:18:08;;;;;;;2.90;1.63;;;;;;;14.67;63.14;98852.16;4898677;29;20053;-70
2022/09/02 04:20:37;;;;;;;2.05;1.92;;;;;;;14.71;63.01;98856.00;4900173;29;20051;-70
2022/09/02 04:23:05;;;;;;;2.53;2.33;;;;;;;14.74;63.05;98850.25;4883012;29;20063;-70
2022/09/02 04:25:32;;;;;;;3.22;2.90;;;;;;;14.73;62.78;98846.75;4882835;29;20584;-70
2022/09/02 04:27:59;;;;;;;3.33;3.10;;;;;;;14.71;62.52;98848.03;4897990;29;20080;-70
2022/09/02 04:30:26;;;;;;;2.95;2.65;;;;;;;14.66;62.76;98851.34;4898381;29;20041;-68
2022/09/02 04:32:53;;;;;;;2.78;2.58;;;;;;;14.63;62.74;98849.09;4905969;29;20086;-71
2022/09/02 04:35:19;;;;;;;2.55;2.35;;;;;;;14.62;62.75;98852.81;4895389;29;20048;-69
2022/09/02 04:37:47;;;;;;;2.40;2.20;;;;;;;14.61;63.00;98841.34;4917846;29;20050;-69
2022/09/02 04:40:15;;;;;;;2.30;2.10;;;;;;;14.64;63.21;98855.22;4916882;29;20140;-72
2022/09/02 04:42:42;;;;;;;2.80;2.60;;;;;;;14.66;62.89;98856.66;4916808;29;20044;-71
2022/09/02 04:45:10;;;;;;;2.03;1.90;;;;;;;14.65;62.87;98849.69;4917275;29;20579;-70
2022/09/02 04:47:38;;;;;;;2.38;2.17;;;;;;;14.66;62.79;98848.69;4916126;29;20508;-69
2022/09/02 04:50:06;;;;;;;3.28;2.97;;;;;;;14.67;62.93;98852.16;4916711;29;20044;-69
2022/09/02 04:52:35;;;;;;;3.47;3.05;;;;;;;14.66;62.46;98847.88;4916382;29;20054;-69
2022/09/02 04:55:02;;;;;;;3.25;2.95;;;;;;;14.64;62.69;98850.72;4919105;29;20051;-71
2022/09/02 04:57:31;;;;;;;3.28;2.88;;;;;;;14.62;62.42;98852.81;4901680;29;20056;-69
2022/09/02 04:59:57;;;;;;;3.42;3.17;;;;;;;14.59;62.36;98853.22;4901018;29;20048;-70
2022/09/02 05:02:24;;;;;;;3.17;2.88;;;;;;;14.54;62.72;98856.53;4917427;29;20083;-69
2022/09/02 05:04:51;;;;;;;2.50;2.30;;;;;;;14.53;63.25;98854.06;4908890;29;20448;-71
2022/09/02 05:07:26;;;;;;;2.53;2.33;;;;;;;14.53;63.09;98857.59;4916600;29;20044;-71
2022/09/02 05:09:58;;;;;;;3.25;2.80;;;;;;;14.52;62.78;98853.25;4916255;29;20076;-71
2022/09/02 05:12:31;;;;;;;3.50;3.20;;;;;;;14.51;62.98;98851.66;4915478;29;20052;-69
2022/09/02 05:14:59;;;;;;;3.05;2.85;;;;;;;14.50;63.36;98851.88;4916028;29;20509;-69
2022/09/02 05:17:31;;;;;;;2.88;2.67;;;;;;;14.51;63.08;98843.66;4915870;29;20056;-70
2022/09/02 05:19:59;;;;;;;7.68;3.40;;;;;;;14.54;62.79;98853.06;4900682;29;20119;-70
2022/09/02 05:22:28;;;;;;;3.72;3.42;;;;;;;14.56;63.16;98854.47;4915870;29;20563;-70
2022/09/02 05:24:56;;;;;;;3.75;3.30;;;;;;;14.59;63.14;98855.88;4916323;29;20138;-70
2022/09/02 05:27:24;;;;;;;2.55;2.35;;;;;;;14.61;62.85;98861.78;4916170;29;20510;-70
2022/09/02 05:29:54;;;;;;;3.47;3.17;;;;;;;14.64;62.92;98863.22;4915710;29;20139;-70
2022/09/02 05:32:22;;;;;;;2.95;2.65;;;;;;;14.69;63.10;98860.72;4915206;29;20103;-70
2022/09/02 05:34:50;;;;;;;2.75;2.55;;;;;;;14.74;62.99;98863.56;4907709;29;20084;-70
2022/09/02 05:37:17;;;;;;;3.10;2.90;;;;;;;14.81;62.99;98865.09;4915319;29;20044;-70
2022/09/02 05:39:43;;;;;;;3.45;3.15;;;;;;;14.90;62.83;98865.66;4917060;29;20051;-70
2022/09/02 05:42:10;;;;;;;3.80;3.50;;;;;;;14.98;62.79;98856.56;4915667;29;20068;-69
2022/09/02 05:44:38;;;;;;;3.40;3.10;;;;;;;15.07;62.50;98865.91;4915636;29;20078;-70
2022/09/02 05:47:06;;;;;;;3.88;3.35;;;;;;;15.16;62.34;98864.56;4899954;29;20556;-69
2022/09/02 05:49:33;;;;;;;4.40;4.00;;;;;;;15.20;61.70;98864.97;4915676;29;20101;-71
2022/09/02 05:52:09;;;;;;;3.60;3.30;;;;;;;15.22;61.79;98854.88;4901164;29;20051;-70
2022/09/02 05:54:43;;;;;;;3.00;2.80;;;;;;;15.28;61.93;98865.47;4915735;29;20138;-69
2022/09/02 05:57:14;;;;;;;3.55;3.25;;;;;;;15.39;62.12;98855.94;4900316;29;20504;-69
2022/09/02 05:59:54;;;;;;;3.10;2.45;;;;;;;15.51;62.09;98861.31;4915528;29;20051;-70
2022/09/02 06:02:25;;;;;;;3.33;2.80;;;;;;;15.64;61.50;98857.72;4914952;29;20044;-69
2022/09/02 06:04:54;;;;;;;2.65;2.45;;;;;;;15.75;61.43;98862.28;4892175;29;20091;-70
2022/09/02 06:07:23;;;;;;;2.42;2.22;;;;;;;15.88;61.34;98862.16;4899776;29;20044;-70
2022/09/02 06:09:52;;;;;;;3.20;2.22;;;;;;;16.01;61.14;98856.63;4916113;29;20095;-70
2022/09/02 06:12:22;;;;;;;2.78;2.30;;;;;;;16.11;60.56;98858.72;4915303;29;20059;-70
2022/09/02 06:14:49;;;;;;;4.32;2.78;;;;;;;16.19;60.10;98857.59;4900266;29;20056;-70
2022/09/02 06:17:18;;;;;;;2.50;2.13;;;;;;;16.26;60.48;98853.81;4915035;29;20052;-70
2022/09/02 06:19:48;;;;;;;3.65;3.35;;;;;;;16.33;59.93;98848.38;4915348;29;20131;-69
2022/09/02 06:22:21;;;;;;;4.45;3.45;;;;;;;16.39;59.95;98852.78;4916006;29;20492;-69
2022/09/02 06:24:47;;;;;;;3.33;2.90;;;;;;;16.47;59.98;98844.44;4916030;29;20044;-69
2022/09/02 06:27:22;;;;;;;3.53;2.88;;;;;;;16.55;59.41;98845.97;4914877;29;20530;-71
2022/09/02 06:29:51;;;;;;;3.03;2.63;;;;;;;16.65;59.50;98848.06;4915308;29;20492;-71
2022/09/02 06:32:20;;;;;;;3.28;2.97;;;;;;;16.75;59.00;98837.66;4915055;29;20048;-70
2022/09/02 06:34:49;;;;;;;2.95;2.70;;;;;;;16.84;58.55;98839.75;4907521;29;20583;-71
2022/09/02 06:37:16;;;;;;;4.10;2.80;;;;;;;16.93;58.25;98842.88;4919441;29;20142;-72
2022/09/02 06:39:45;;;;;;;3.13;2.92;;;;;;;17.00;57.77;98834.75;4924788;29;20040;-70
2022/09/02 06:42:16;;;;;;;3.15;2.85;;;;;;;17.08;57.73;98835.22;4916325;29;20139;-70
2022/09/02 06:44:59;;;;;;;3.05;2.75;;;;;;;17.18;57.52;98836.47;4901688;29;20052;-71
2022/09/02 06:47:26;;;;;;;5.30;2.92;;;;;;;17.23;57.01;98837.41;4899231;29;20513;-70
2022/09/02 06:49:53;;;;;;;2.85;2.55;;;;;;;17.30;56.63;98835.41;4899711;29;20737;-70
2022/09/02 06:52:20;;;;;;;2.75;2.50;;;;;;;17.36;56.15;98824.84;4915007;29;20056;-70
2022/09/02 06:54:48;;;;;;;2.50;2.30;;;;;;;17.44;56.19;98827.16;4915012;29;20397;-71
2022/09/02 06:57:16;;;;;;;3.50;2.15;;;;;;;17.51;55.99;98828.66;4899101;29;20055;-71
2022/09/02 06:59:43;;;;;;;2.10;1.90;;;;;;;17.63;55.75;98823.25;4916211;29;20076;-70
2022/09/02 07:02:10;;;;;;;2.25;2.05;;;;;;;17.75;55.31;98826.72;4914773;29;20143;-71
2022/09/02 07:07:24;;;;;;;2.22;2.00;;;;;;;18.02;54.43;98823.47;4914622;29;20060;-69
2022/09/02 07:09:58;;;;;;;2.17;1.92;;;;;;;18.09;53.85;98820.66;4914988;29;20460;-70
2022/09/02 07:12:26;;;;;;;2.85;2.28;;;;;;;18.18;53.99;98819.22;4898965;29;20072;-70
2022/09/02 07:14:57;;;;;;;2.40;2.00;;;;;;;18.26;53.59;98821.50;4899881;29;20056;-70
2022/09/02 07:17:33;;;;;;;2.58;2.00;;;;;;;18.35;53.39;98813.88;4914797;29;20063;-71
2022/09/02 07:20:05;;;;;;;1.95;1.75;;;;;;;18.45;53.02;98820.22;4915030;29;20055;-70
2022/09/02 07:22:38;;;;;;;4.45;2.58;;;;;;;18.54;52.06;98809.91;4915394;29;20087;-70
2022/09/02 07:25:07;;;;;;;1.67;1.58;;;;;;;18.64;52.10;98812.72;4914638;29;20048;-71
2022/09/02 07:27:36;;;;;;;2.33;1.50;;;;;;;18.72;51.50;98812.34;4898783;29;20496;-69
2022/09/02 07:30:05;;;;;;;1.85;1.52;;;;;;;18.82;51.33;98811.69;4914718;29;20047;-69
2022/09/02 07:32:34;;;;;;;1.50;1.40;;;;;;;18.94;50.69;98808.88;4914133;29;20500;-69
2022/09/02 07:35:05;;;;;;;1.70;1.60;;;;;;;19.03;50.44;98810.91;4908965;29;20083;-70
2022/09/02 07:37:36;;;;;;;2.35;2.00;;;;;;;19.13;50.45;98809.44;4918570;29;20048;-70
2022/09/02 07:40:06;;;;;;;2.50;1.80;;;;;;;19.21;50.02;98804.44;4919669;29;20048;-69
2022/09/02 07:42:33;;;;;;;2.95;1.77;;;;;;;19.33;49.33;98807.00;4918512;29;20138;-69
2022/09/02 07:45:00;;;;;;;1.83;1.67;;;;;;;19.41;48.86;98811.13;4919616;29;20112;-69
2022/09/02 07:47:27;;;;;;;1.90;1.38;;;;;;;19.46;48.73;98819.22;4918842;29;20146;-69
2022/09/02 07:49:54;;;;;;;2.45;1.23;;;;;;;19.54;48.51;98816.09;4919806;29;20445;-71
2022/09/02 07:52:41;;;;;;;2.00;1.23;;;;;;;19.54;48.02;98816.09;4919811;29;20040;-69
2022/09/02 07:55:10;;;;;;;1.27;1.17;;;;;;;19.70;47.99;98811.75;4918842;29;20052;-70
2022/09/02 07:57:41;;;;;;;1.30;1.20;;;;;;;19.87;47.67;98809.78;4919928;29;20063;-70
2022/09/02 08:00:11;;;;;;;1.98;1.20;;;;;;;19.96;47.16;98812.81;4904116;29;20143;-70
2022/09/02 08:02:40;;;;;;;2.42;1.35;;;;;;;20.09;46.81;98804.38;4919666;29;20079;-69
2022/09/02 08:05:10;;;;;;;2.53;1.23;;;;;;;20.20;46.93;98811.44;4910927;29;20079;-70
2022/09/02 08:07:36;;;;;;;1.48;1.30;;;;;;;20.24;46.17;98807.19;4920037;29;20047;-69
2022/09/02 08:10:06;;;;;;;1.63;1.10;;;;;;;20.33;45.84;98804.88;4918958;29;20040;-70
2022/09/02 08:12:32;;;;;;;2.35;1.60;;;;;;;20.36;45.55;98811.59;4917886;29;20100;-68
2022/09/02 08:14:59;;;;;;;1.50;1.40;;;;;;;20.47;45.70;98810.59;4917598;29;20048;-70
2022/09/02 08:17:25;;;;;;;1.65;1.30;;;;;;;20.52;44.87;98807.97;4918290;29;20177;-69
2022/09/02 08:19:52;;;;;;;1.25;1.10;;;;;;;20.62;45.32;98808.06;4902251;29;20044;-70
2022/09/02 08:22:18;;;;;;;1.05;0.95;;;;;;;20.70;44.31;98802.22;4917885;29;20040;-70
2022/09/02 08:24:45;;;;;;;1.30;1.20;;;;;;;20.80;44.75;98800.66;4919320;29;20044;-70
2022/09/02 08:27:12;;;;;;;0.93;0.90;;;;;;;20.87;44.25;98801.25;4917090;29;20063;-69
2022/09/02 08:29:38;;;;;;;1.45;1.35;;;;;;;20.94;43.66;98799.94;4918129;29;20040;-70
2022/09/02 08:32:05;;;;;;;1.67;1.30;;;;;;;21.05;43.71;98805.38;4916679;29;20054;-70
2022/09/02 08:34:32;;;;;;;1.40;1.30;;;;;;;21.15;43.24;98805.44;4909303;29;20131;-70
2022/09/02 08:36:59;;;;;;;1.65;1.20;;;;;;;21.24;43.12;98801.19;4918181;29;20044;-69
2022/09/02 08:39:25;;;;;;;1.50;1.20;;;;;;;21.30;42.70;98802.00;4916982;29;20408;-70
2022/09/02 08:42:01;;;;;;;1.80;1.35;;;;;;;21.34;42.16;98798.53;4916889;29;20055;-69
2022/09/02 08:44:36;;;;;;;1.50;1.40;;;;;;;21.39;41.87;98800.44;4916872;29;20423;-70
2022/09/02 08:47:07;;;;;;;1.23;1.13;;;;;;;21.38;41.38;98799.63;4916724;29;20122;-71
2022/09/02 08:49:39;;;;;;;1.65;1.38;;;;;;;21.44;41.17;98795.91;4917957;29;20520;-68
2022/09/02 08:52:06;;;;;;;1.58;1.48;;;;;;;21.39;40.64;98795.91;4918146;29;20044;-70
2022/09/02 08:54:41;;;;;;;1.10;1.00;;;;;;;21.43;39.99;98799.69;4916834;29;20531;-69
2022/09/02 08:57:09;;;;;;;1.33;1.23;;;;;;;21.56;40.33;98797.56;4917712;29;20052;-68
2022/09/02 08:59:36;;;;;;;1.10;1.00;;;;;;;21.64;40.11;98795.16;4917655;29;20103;-71
2022/09/02 09:02:39;;;;;;;1.15;1.08;;;;;;;21.73;39.34;98790.88;4917130;29;20071;-69
2022/09/02 09:05:30;;;;;;;1.17;1.10;;;;;;;21.88;39.56;98791.97;4903515;29;20142;-70
2022/09/02 09:08:08;;;;;;;1.27;1.13;;;;;;;21.95;39.58;98797.91;4919697;29;20431;-68
2022/09/02 09:11:02;;;;;;;1.30;0.90;;;;;;;22.00;38.14;98790.69;4918342;29;20054;-68
2022/09/02 09:13:54;;;;;;;1.27;1.10;;;;;;;22.08;38.76;98785.81;4918933;29;20043;-70
2022/09/02 09:16:59;;;;;;;1.05;1.00;;;;;;;22.17;36.58;98785.06;4917205;29;20051;-69
2022/09/02 09:19:39;;;;;;;1.48;1.00;;;;;;;22.28;38.32;98783.16;4900517;29;20052;-69
2022/09/02 09:22:06;;;;;;;1.25;1.15;;;;;;;22.34;37.65;98789.38;4917160;29;20048;-68
2022/09/02 09:24:37;;;;;;;1.23;1.13;;;;;;;22.44;36.75;98787.47;4917485;29;20408;-70
2022/09/02 09:27:11;;;;;;;1.63;1.00;;;;;;;22.54;36.91;98781.28;4916060;29;20048;-71
2022/09/02 09:29:37;;;;;;;1.30;1.20;;;;;;;22.58;35.96;98779.66;4917264;29;20044;-69
2022/09/02 09:32:22;;;;;;;1.40;1.30;;;;;;;22.64;35.01;98775.88;4913173;29;20044;-69
2022/09/02 09:34:52;;;;;;;1.33;1.23;;;;;;;22.67;35.66;98772.63;4897467;29;20498;-69
2022/09/02 09:37:33;;;;;;;1.17;1.08;;;;;;;22.68;34.33;98776.13;4897148;29;20070;-69
2022/09/02 09:40:24;;;;;;;2.80;1.20;;;;;;;22.66;34.28;98759.44;4897570;29;20049;-69
2022/09/02 09:43:11;;;;;;;1.23;1.13;;;;;;;22.70;33.74;98771.28;4897289;29;20087;-70
2022/09/02 09:45:43;;;;;;;1.27;1.17;;;;;;;22.76;34.97;98767.50;4898435;29;20044;-69
2022/09/02 09:48:18;;;;;;;1.38;1.02;;;;;;;22.78;35.50;98769.91;4898084;29;20120;-69
2022/09/02 09:50:46;;;;;;;1.40;1.30;;;;;;;22.94;35.44;98761.56;4897113;29;20055;-69
2022/09/02 09:53:13;;;;;;;1.30;1.00;;;;;;;23.10;35.36;98762.28;4897960;29;20049;-68
2022/09/02 09:56:04;;;;;;;0.90;0.90;;;;;;;23.30;34.91;98760.59;4898769;29;20127;-69
2022/09/02 09:58:41;;;;;;;1.10;1.00;;;;;;;23.41;34.39;98762.19;4892423;29;20064;-68
2022/09/02 10:01:11;;;;;;;1.10;1.00;;;;;;;23.50;34.16;98757.81;4898150;29;20045;-70
2022/09/02 10:03:51;;;;;;;1.10;1.00;;;;;;;23.59;34.31;98758.03;4896714;29;20100;-69
2022/09/02 10:06:30;;;;;;;1.20;1.10;;;;;;;23.62;34.23;98746.69;4897738;29;20052;-67
2022/09/02 10:09:02;;;;;;;1.30;1.20;;;;;;;23.67;34.16;98749.38;4898023;29;20053;-70
2022/09/02 10:11:31;;;;;;;1.50;1.38;;;;;;;23.51;33.25;98755.91;4896688;29;20131;-69
2022/09/02 10:14:02;;;;;;;2.45;1.27;;;;;;;23.46;33.69;98745.97;4898128;29;20041;-69
2022/09/02 10:16:40;;;;;;;1.55;1.17;;;;;;;23.51;33.85;98750.53;4895812;29;20116;-68
2022/09/02 10:19:33;;;;;;;1.05;1.02;;;;;;;23.52;33.18;98741.38;4897662;29;20096;-69
2022/09/02 10:22:35;;;;;;;1.65;1.45;;;;;;;23.52;31.75;98744.88;4896653;29;20144;-69
2022/09/02 10:25:27;;;;;;;1.35;1.10;;;;;;;23.54;32.18;98736.47;4898267;29;20122;-70
2022/09/02 10:28:14;;;;;;;1.45;1.02;;;;;;;23.47;32.26;98740.31;4898450;29;20382;-69
2022/09/02 10:31:22;;;;;;;1.65;1.23;;;;;;;23.34;30.67;98727.41;4896687;29;20048;-69
2022/09/02 10:34:26;;;;;;;1.00;0.98;;;;;;;23.45;30.23;98734.38;4905291;29;20501;-69
2022/09/02 10:37:16;;;;;;;;;;;;;;;23.50;31.21;98725.44;4916183;29;20078;-68
2022/09/02 10:40:02;;;;;;;2.83;1.52;;;;;;;23.66;31.76;98713.50;4916876;29;20379;-70
2022/09/02 10:42:50;;;;;;;1.42;1.05;;;;;;;23.81;31.72;98717.19;4916541;29;20404;-71
2022/09/02 10:45:29;;;;;;;1.58;1.10;;;;;;;23.75;30.37;98710.19;4916006;29;20468;-68
2022/09/02 10:48:01;;;;;;;1.10;1.00;;;;;;;23.68;30.87;98705.94;4917263;29;20056;-69
2022/09/02 10:50:36;;;;;;;1.02;0.85;;;;;;;23.61;30.06;98702.72;4916364;29;20063;-70
2022/09/02 10:53:24;;;;;;;1.42;0.95;;;;;;;23.68;30.59;98700.53;4916093;29;20052;-69
2022/09/02 10:56:09;;;;;;;1.05;0.95;;;;;;;23.79;31.32;98703.94;4915373;29;20060;-70
2022/09/02 10:58:42;;;;;;;0.80;0.80;;;;;;;23.82;30.62;98689.91;4918399;29;20055;-70
2022/09/02 11:01:17;;;;;;;0.80;0.80;;;;;;;23.90;31.19;98689.28;4918065;29;20051;-70
2022/09/02 11:04:17;;;;;;;1.10;1.00;;;;;;;23.92;30.73;98680.91;4906880;29;20505;-68
2022/09/02 11:06:50;;;;;;;1.10;1.02;;;;;;;24.00;31.30;98684.88;4899858;29;20124;-68
2022/09/02 11:09:53;;;;;;;1.20;0.95;;;;;;;24.17;31.03;98669.09;4914910;29;20099;-68
2022/09/02 11:12:51;;;;;;;1.27;1.15;;;;;;;24.29;31.03;98676.78;4912624;29;20072;-69
2022/09/02 11:15:41;;;;;;;2.08;0.90;;;;;;;24.29;31.38;98677.63;4919222;29;20581;-69
2022/09/02 11:18:19;;;;;;;1.30;0.93;;;;;;;24.33;31.21;98675.97;4917922;29;20453;-69
2022/09/02 11:20:56;;;;;;;1.20;1.10;;;;;;;24.32;31.01;98666.22;4919273;29;20079;-69
2022/09/02 11:23:39;;;;;;;1.30;1.00;;;;;;;24.34;30.79;98666.75;4919371;29;20400;-69
2022/09/02 11:26:10;;;;;;;0.98;0.77;;;;;;;24.33;30.94;98669.72;4919049;29;20054;-69
2022/09/02 11:28:58;;;;;;;1.00;0.80;;;;;;;24.44;31.29;98660.47;4918231;29;20410;-68
2022/09/02 11:31:38;;;;;;;0.95;0.85;;;;;;;24.55;31.02;98663.88;4918011;29;20127;-69
2022/09/02 11:34:18;;;;;;;1.50;1.00;;;;;;;24.45;29.93;98664.78;4910849;29;20040;-70
2022/09/02 11:36:47;;;;;;;0.90;0.90;;;;;;;24.48;30.70;98660.69;4918993;29;20048;-70
2022/09/02 11:39:31;;;;;;;1.63;0.90;;;;;;;24.33;30.11;98651.66;4919148;29;20047;-68
2022/09/02 11:42:49;;;;;;;0.90;0.85;;;;;;;24.35;29.97;98654.84;4918824;29;20048;-69
2022/09/02 11:45:42;;;;;;;1.55;0.82;;;;;;;24.40;29.84;98657.53;4917818;29;20075;-70
2022/09/02 11:48:28;;;;;;;1.00;0.90;;;;;;;24.43;29.29;98659.66;4917426;29;20051;-68
2022/09/02 11:51:27;;;;;;;1.02;0.82;;;;;;;24.37;29.61;98650.00;4917582;29;20186;-68
2022/09/02 11:53:55;;;;;;;1.25;0.93;;;;;;;24.58;30.33;98649.78;4919014;29;20048;-68
2022/09/02 11:56:29;;;;;;;0.82;0.82;;;;;;;24.74;28.73;98653.94;4917282;29;20056;-68
2022/09/02 11:58:55;;;;;;;1.45;0.93;;;;;;;24.81;29.47;98648.16;4918811;29;20048;-68
2022/09/02 12:01:28;;;;;;;1.80;1.08;;;;;;;24.86;28.71;98648.06;4917070;29;20052;-68
2022/09/02 12:04:09;;;;;;;1.03;0.90;;;;;;;24.88;29.13;98649.41;4910483;29;20104;-68